Alvaton, KY

2:16 AM CDT on April 18, 2015 (GMT -0500)
Plano | | Change Station
CLOSE
Current Station
Personal Weather Station
Location: Bowling Green, KY
Elevation: 630 ft
Nearby Weather Stations
Active Advisory: Flood Warning

Elev 630 ft 36.87 °N, 86.41 °W | Updated 3 seconds ago

Fog
Fog
56.6 °F
Feels Like 56.6 °F
N
0.0
Wind Variable Wind from North
Gusts 0.0 mph

Today
High -- | Low -- °F
--% Chance of Precip.
Yesterday
High -- | Low -- °F
Precip. -- in
6:07 AM 7:22 PM
Waning Crescent, 0% visible
Pressure 30.02 in
Visibility 1.2 miles
Clouds Clear
Dew Point 57 °F
Humidity 100%
Rainfall 0.00 in
Snow Depth Not available.
UV 0 out of 12
Pollen 10.00 out of 12
Air Quality Not available.
Flu Activity Local Activity
SPECI KBWG 180707Z AUTO 11003KT 1 1/4SM BR CLR 13/12 A3002 RMK AO2 T01280117

More Conditions Fewer Conditions

Pressure 30.02 in
Visibility 1.2 miles
Clouds Clear
Dew Point 57 °F
Humidity 100%
Rainfall 0.00 in
Snow Depth Not available.
UV 0 out of 12
Pollen 10.00 out of 12
Air Quality Not available.
Flu Activity Local Activity
SPECI KBWG 180707Z AUTO 11003KT 1 1/4SM BR CLR 13/12 A3002 RMK AO2 T01280117

More Conditions Fewer Conditions

10-Day Weather Forecast

Almanac

Astronomy

Apr. 18, 2015 Rise Set
Actual Time
Civil Twilight
Nautical Twilight
Astronomical Twilight
Moon
Length of Visible Light
Length of Day
Tomorrow will be .
, % of the Moon is Illuminated

Today's Extremes

State Highs State Lows

Community

WunderPhotos

Upload Photos

1,814,341 photos uploaded!

WunderBlogs® & News

Nearby

Air Quality

  Air Quality AQ Index Pollutant
Not available.

Snow Depth

Station Depth Elevation

Earthquake Activity

City Distance Mag. Time & Date
Minimum magnitude displayed is 2.5.

Coastal Water Temperatures

Place Temperature

Stations

Nearby Weather Stations

Station Location Temp. Windchill Dew Point Humidity Wind Precip. Elev Updated Type
                   
Flood Warning
Statement as of 9:26 PM EDT on April 17, 2015

The Flood Warning continues for
the Green River at Woodbury.
* Until further notice.
* At 6:00 am Friday the stage was 38.9 feet.
* Flood stage is 33.0 feet.
* Minor flooding is occurring and minor flooding is forecast.
* Forecast... the river will continue rising to near 40.4 feet by
after midnight Saturday then begin falling.
* Impact... at 40.0 feet... Old Ferry River Road in Aberdeen floods.



Lat... Lon 3724 8641 3728 8659 3739 8678 3728 8680
      3716 8665 3713 8641